AFR264 LFPG-RKSI
Flight info
| Callsign | AFR264 |
|---|---|
| Flight time | N/A |
| Altitude | 35000 |
| Route | BUBLI DCT LUVAL DCT MIRGU DCT BEGAR DCT TRA DCT GAMSA DCT UMVEG DCT LUMUS/N0488F370 DCT BERTA DCT OKLOP DCT ETIDA DCT EKSOL DCT UDROS UN743 GAKSU UT310 SIN UN644 KARDE UL851 TBN UR317 REBLO DCT MATAL T916 SUBUT M747 LUSAL N199 RASAM L88 METKA B476 UGLEP/N0492F390 B476 TIMGA A480 OTBOR/K0898F390 N147 ELAHA Z621 ARBOL M610 RULAD/K0891S1190 A343 POSOT B215 FKG W188 LIKMI W270 POPIB/K0896S1250 W270 DKO W69 HUR B339 LADIX W34 VAPGU W100 ORAVA W201 UNSEK A326 DONVO G597 AGAVO/N0485F410 Y644 REBIT REBIT1Y |
| Aircraft | A359/H-SABDE2E3GHIJ1J2J3J4J5M1P2RWXYZ/LB1D1 |
Departure
| Time | 2026-05-09 09:23 |
|---|---|
| Airport | Charles de Gaulle International Airport (LFPG) |
Arrival
| Time | N/A |
|---|---|
| Airport | Incheon International Airport (RKSI) |
| Time | Latitude | Longitude | Altitude | Speed | Heading |
|---|---|---|---|---|---|
| 2026-05-09 08:43 | 49.00779 | 2.59148 | 361 ft | 0 kts | 267° |
| 2026-05-09 09:02 | 49.00780 | 2.59183 | 362 ft | 4 kts | 272° |
| 2026-05-09 09:02 | 49.00777 | 2.59223 | 366 ft | 4 kts | 282° |
| 2026-05-09 09:02 | 49.00769 | 2.59261 | 365 ft | 4 kts | 304° |
| 2026-05-09 09:02 | 49.00751 | 2.59285 | 361 ft | 3 kts | 353° |
| 2026-05-09 09:03 | 49.00749 | 2.59285 | 366 ft | 0 kts | 355° |
| 2026-05-09 09:05 | 49.00754 | 2.59285 | 362 ft | 3 kts | 355° |
| 2026-05-09 09:05 | 49.00805 | 2.59279 | 365 ft | 11 kts | 355° |
| 2026-05-09 09:06 | 49.00868 | 2.59208 | 369 ft | 13 kts | 288° |
| 2026-05-09 09:06 | 49.00870 | 2.59074 | 363 ft | 13 kts | 267° |
| 2026-05-09 09:06 | 49.00869 | 2.58951 | 366 ft | 4 kts | 285° |
| 2026-05-09 09:06 | 49.00886 | 2.58925 | 368 ft | 4 kts | 315° |
| 2026-05-09 09:07 | 49.00911 | 2.58892 | 368 ft | 7 kts | 318° |
| 2026-05-09 09:07 | 49.00938 | 2.58824 | 369 ft | 9 kts | 283° |
| 2026-05-09 09:07 | 49.00940 | 2.58712 | 366 ft | 13 kts | 265° |
| 2026-05-09 09:07 | 49.00932 | 2.58555 | 366 ft | 17 kts | 266° |
| 2026-05-09 09:08 | 49.00923 | 2.58354 | 368 ft | 21 kts | 266° |
| 2026-05-09 09:08 | 49.00933 | 2.58132 | 369 ft | 21 kts | 317° |
| 2026-05-09 09:08 | 49.01079 | 2.58082 | 364 ft | 22 kts | 354° |
| 2026-05-09 09:08 | 49.01218 | 2.58062 | 366 ft | 18 kts | 355° |
| 2026-05-09 09:09 | 49.01334 | 2.58049 | 364 ft | 15 kts | 355° |
| 2026-05-09 09:09 | 49.01429 | 2.58038 | 360 ft | 12 kts | 355° |
| 2026-05-09 09:09 | 49.01504 | 2.58029 | 364 ft | 10 kts | 356° |
| 2026-05-09 09:09 | 49.01582 | 2.58020 | 366 ft | 13 kts | 354° |
| 2026-05-09 09:10 | 49.01679 | 2.58007 | 360 ft | 15 kts | 355° |
| 2026-05-09 09:10 | 49.01783 | 2.57993 | 365 ft | 15 kts | 354° |
| 2026-05-09 09:10 | 49.01887 | 2.57960 | 365 ft | 15 kts | 338° |
| 2026-05-09 09:10 | 49.01967 | 2.57865 | 368 ft | 14 kts | 306° |
| 2026-05-09 09:11 | 49.01998 | 2.57730 | 365 ft | 13 kts | 278° |
| 2026-05-09 09:11 | 49.01996 | 2.57596 | 362 ft | 12 kts | 265° |
| 2026-05-09 09:11 | 49.01994 | 2.57570 | 364 ft | 0 kts | 264° |
| 2026-05-09 09:11 | 49.00779 | 2.59148 | 364 ft | 6 kts | 267° |
| 2026-05-09 09:13 | 49.01994 | 2.57568 | 361 ft | 0 kts | 264° |
| 2026-05-09 09:15 | 49.01994 | 2.57563 | 360 ft | 3 kts | 265° |
| 2026-05-09 09:15 | 49.01990 | 2.57478 | 367 ft | 13 kts | 265° |
| 2026-05-09 09:15 | 49.01979 | 2.57288 | 362 ft | 22 kts | 265° |
| 2026-05-09 09:16 | 49.01966 | 2.57029 | 365 ft | 27 kts | 266° |
| 2026-05-09 09:16 | 49.01939 | 2.56558 | 363 ft | 30 kts | 264° |
| 2026-05-09 09:16 | 49.01930 | 2.56351 | 366 ft | 30 kts | 266° |
| 2026-05-09 09:17 | 49.01913 | 2.56059 | 362 ft | 31 kts | 265° |
| 2026-05-09 09:17 | 49.01896 | 2.55728 | 362 ft | 31 kts | 265° |
| 2026-05-09 09:17 | 49.01879 | 2.55399 | 366 ft | 31 kts | 265° |
| 2026-05-09 09:17 | 49.01860 | 2.55074 | 367 ft | 31 kts | 266° |
| 2026-05-09 09:18 | 49.01843 | 2.54750 | 366 ft | 31 kts | 264° |
| 2026-05-09 09:18 | 49.01826 | 2.54430 | 365 ft | 30 kts | 266° |
| 2026-05-09 09:18 | 49.01810 | 2.54114 | 365 ft | 30 kts | 265° |
| 2026-05-09 09:18 | 49.01793 | 2.53800 | 365 ft | 30 kts | 265° |
| 2026-05-09 09:19 | 49.01777 | 2.53486 | 366 ft | 29 kts | 265° |
| 2026-05-09 09:19 | 49.01758 | 2.53182 | 367 ft | 29 kts | 265° |
| 2026-05-09 09:19 | 49.01743 | 2.52884 | 367 ft | 29 kts | 265° |
| 2026-05-09 09:19 | 49.01727 | 2.52579 | 369 ft | 28 kts | 265° |
| 2026-05-09 09:20 | 49.01712 | 2.52318 | 367 ft | 22 kts | 265° |
| 2026-05-09 09:20 | 49.01727 | 2.52156 | 370 ft | 11 kts | 322° |
| 2026-05-09 09:20 | 49.01804 | 2.52135 | 367 ft | 12 kts | 356° |
| 2026-05-09 09:20 | 49.01890 | 2.52124 | 364 ft | 13 kts | 355° |
| 2026-05-09 09:21 | 49.01983 | 2.52112 | 365 ft | 14 kts | 356° |
| 2026-05-09 09:21 | 49.02078 | 2.52114 | 363 ft | 11 kts | 15° |
| 2026-05-09 09:21 | 49.02111 | 2.52211 | 363 ft | 11 kts | 85° |
| 2026-05-09 09:21 | 49.02119 | 2.52366 | 367 ft | 10 kts | 85° |
| 2026-05-09 09:22 | 49.02120 | 2.52371 | 365 ft | 0 kts | 85° |
| 2026-05-09 09:22 | 49.02125 | 2.52459 | 362 ft | 31 kts | 85° |
| 2026-05-09 09:22 | 49.02159 | 2.53108 | 367 ft | 90 kts | 85° |
| 2026-05-09 09:22 | 49.02224 | 2.54325 | 369 ft | 139 kts | 85° |
| 2026-05-09 09:23 | 49.02313 | 2.55947 | 702 ft | 151 kts | 86° |
| 2026-05-09 09:23 | 49.02390 | 2.57470 | 1437 ft | 140 kts | 87° |
| 2026-05-09 09:23 | 49.02447 | 2.59102 | 1710 ft | 162 kts | 90° |
| 2026-05-09 09:23 | 49.02487 | 2.60826 | 2258 ft | 163 kts | 88° |
| 2026-05-09 09:24 | 49.02560 | 2.62573 | 2760 ft | 164 kts | 87° |
| 2026-05-09 09:24 | 49.02683 | 2.64303 | 3271 ft | 165 kts | 86° |
| 2026-05-09 09:24 | 49.02808 | 2.66108 | 3550 ft | 179 kts | 86° |
| 2026-05-09 09:24 | 49.02933 | 2.68082 | 3740 ft | 196 kts | 86° |
| 2026-05-09 09:25 | 49.03056 | 2.70247 | 3899 ft | 215 kts | 87° |
| 2026-05-09 09:25 | 49.03182 | 2.72616 | 4170 ft | 233 kts | 87° |
| 2026-05-09 09:25 | 49.03308 | 2.75164 | 4380 ft | 250 kts | 88° |
| 2026-05-09 09:25 | 49.03438 | 2.77870 | 4850 ft | 261 kts | 87° |
| 2026-05-09 09:26 | 49.03571 | 2.80640 | 5436 ft | 264 kts | 88° |
| 2026-05-09 09:26 | 49.03709 | 2.83458 | 6017 ft | 269 kts | 87° |
| 2026-05-09 09:26 | 49.03847 | 2.86329 | 6640 ft | 274 kts | 87° |
| 2026-05-09 09:26 | 49.03985 | 2.89214 | 7235 ft | 279 kts | 87° |
| 2026-05-09 09:27 | 49.03999 | 2.92184 | 7842 ft | 282 kts | 100° |
| 2026-05-09 09:27 | 49.03387 | 2.95001 | 8472 ft | 282 kts | 119° |
| 2026-05-09 09:27 | 49.02445 | 2.97638 | 9162 ft | 285 kts | 122° |
| 2026-05-09 09:27 | 49.01455 | 3.00270 | 9762 ft | 288 kts | 122° |
| 2026-05-09 09:28 | 49.00460 | 3.02929 | 10007 ft | 290 kts | 122° |
| 2026-05-09 09:28 | 48.99465 | 3.05608 | 10047 ft | 291 kts | 122° |
| 2026-05-09 09:28 | 48.98467 | 3.08300 | 10039 ft | 292 kts | 122° |
| 2026-05-09 09:28 | 48.97470 | 3.10998 | 10040 ft | 293 kts | 122° |
| 2026-05-09 09:29 | 48.96470 | 3.13703 | 10040 ft | 293 kts | 121° |
| 2026-05-09 09:29 | 48.95470 | 3.16409 | 10048 ft | 293 kts | 122° |
| 2026-05-09 09:29 | 48.94481 | 3.19082 | 10050 ft | 294 kts | 121° |
| 2026-05-09 09:29 | 48.93480 | 3.21788 | 10044 ft | 294 kts | 122° |
| 2026-05-09 09:30 | 48.92474 | 3.24500 | 10046 ft | 294 kts | 122° |
| 2026-05-09 09:30 | 48.91470 | 3.27201 | 10050 ft | 294 kts | 122° |
| 2026-05-09 09:30 | 48.90462 | 3.29898 | 10046 ft | 293 kts | 122° |
| 2026-05-09 09:30 | 48.89457 | 3.32600 | 10049 ft | 293 kts | 122° |
| 2026-05-09 09:31 | 48.88454 | 3.35301 | 10051 ft | 293 kts | 122° |
| 2026-05-09 09:31 | 48.87451 | 3.37995 | 10052 ft | 294 kts | 122° |
| 2026-05-09 09:31 | 48.86442 | 3.40702 | 10049 ft | 294 kts | 122° |
| 2026-05-09 09:32 | 48.84427 | 3.46097 | 10050 ft | 294 kts | 122° |
| 2026-05-09 09:32 | 48.83746 | 3.47917 | 10051 ft | 293 kts | 122° |
| 2026-05-09 09:32 | 48.82751 | 3.50569 | 10043 ft | 293 kts | 122° |
| 2026-05-09 09:32 | 48.81800 | 3.53321 | 10048 ft | 295 kts | 116° |
| 2026-05-09 09:33 | 48.81147 | 3.56278 | 10056 ft | 298 kts | 104° |
| 2026-05-09 09:33 | 48.80841 | 3.59391 | 10053 ft | 298 kts | 97° |
| 2026-05-09 09:33 | 48.80643 | 3.62525 | 10052 ft | 299 kts | 97° |
| 2026-05-09 09:33 | 48.80450 | 3.65660 | 10055 ft | 299 kts | 97° |
| 2026-05-09 09:34 | 48.80250 | 3.68799 | 10052 ft | 299 kts | 97° |
| 2026-05-09 09:34 | 48.80049 | 3.71929 | 10052 ft | 299 kts | 97° |
| 2026-05-09 09:34 | 48.79848 | 3.75064 | 10053 ft | 298 kts | 97° |
| 2026-05-09 09:36 | 48.78392 | 3.96971 | 10053 ft | 298 kts | 97° |
| 2026-05-09 09:36 | 48.78181 | 4.00093 | 10051 ft | 298 kts | 98° |
| 2026-05-09 09:36 | 48.77969 | 4.03220 | 10049 ft | 298 kts | 98° |
| 2026-05-09 09:37 | 48.77758 | 4.06315 | 10051 ft | 298 kts | 97° |
| 2026-05-09 09:37 | 48.77542 | 4.09442 | 10049 ft | 298 kts | 98° |
| 2026-05-09 09:37 | 48.77207 | 4.12537 | 10046 ft | 297 kts | 105° |
| 2026-05-09 09:37 | 48.76574 | 4.15501 | 10047 ft | 295 kts | 115° |
| 2026-05-09 09:38 | 48.75633 | 4.18252 | 10046 ft | 293 kts | 124° |
| 2026-05-09 09:38 | 48.74526 | 4.20844 | 10048 ft | 293 kts | 127° |
| 2026-05-09 09:38 | 48.73357 | 4.23371 | 10046 ft | 292 kts | 128° |
| 2026-05-09 09:38 | 48.72163 | 4.25861 | 10047 ft | 292 kts | 128° |
| 2026-05-09 09:39 | 48.70961 | 4.28344 | 10051 ft | 292 kts | 129° |
| 2026-05-09 09:39 | 48.69766 | 4.30827 | 10048 ft | 292 kts | 128° |
| 2026-05-09 09:39 | 48.68574 | 4.33324 | 10048 ft | 292 kts | 128° |
| 2026-05-09 09:39 | 48.67386 | 4.35827 | 10046 ft | 293 kts | 128° |
| 2026-05-09 09:40 | 48.66202 | 4.38334 | 10046 ft | 293 kts | 128° |
| 2026-05-09 09:40 | 48.65034 | 4.40811 | 10049 ft | 293 kts | 127° |
| 2026-05-09 09:40 | 48.63835 | 4.43354 | 10049 ft | 293 kts | 128° |
| 2026-05-09 09:40 | 48.62668 | 4.45830 | 10048 ft | 293 kts | 128° |
| 2026-05-09 09:41 | 48.61480 | 4.48345 | 10050 ft | 293 kts | 128° |
| 2026-05-09 09:41 | 48.60294 | 4.50852 | 10050 ft | 293 kts | 128° |
| 2026-05-09 09:41 | 48.59110 | 4.53353 | 10050 ft | 293 kts | 128° |
| 2026-05-09 09:41 | 48.57924 | 4.55855 | 10051 ft | 293 kts | 127° |
| 2026-05-09 09:42 | 48.56742 | 4.58349 | 10049 ft | 292 kts | 128° |
| 2026-05-09 09:42 | 48.55556 | 4.60845 | 10052 ft | 293 kts | 128° |
| 2026-05-09 09:42 | 48.54368 | 4.63345 | 10050 ft | 292 kts | 128° |
| 2026-05-09 09:42 | 48.53186 | 4.65828 | 10050 ft | 292 kts | 128° |
| 2026-05-09 09:43 | 48.52004 | 4.68309 | 10048 ft | 291 kts | 128° |
| 2026-05-09 09:43 | 48.50819 | 4.70791 | 10047 ft | 291 kts | 128° |
| 2026-05-09 09:43 | 48.49633 | 4.73273 | 10047 ft | 291 kts | 128° |
| 2026-05-09 09:43 | 48.48449 | 4.75750 | 10045 ft | 292 kts | 127° |
| 2026-05-09 09:44 | 48.47262 | 4.78233 | 10046 ft | 292 kts | 128° |
| 2026-05-09 09:44 | 48.46072 | 4.80722 | 10093 ft | 293 kts | 128° |
| 2026-05-09 09:44 | 48.44864 | 4.83242 | 10261 ft | 303 kts | 128° |
| 2026-05-09 09:44 | 48.43623 | 4.85923 | 10532 ft | 321 kts | 123° |
| 2026-05-09 09:45 | 48.42669 | 4.89053 | 10853 ft | 338 kts | 111° |
| 2026-05-09 09:45 | 48.41970 | 4.92491 | 11172 ft | 353 kts | 106° |
| 2026-05-09 09:45 | 48.41401 | 4.96172 | 11489 ft | 367 kts | 103° |
| 2026-05-09 09:45 | 48.40903 | 4.99971 | 12018 ft | 373 kts | 102° |
| 2026-05-09 09:46 | 48.40421 | 5.03828 | 12624 ft | 377 kts | 102° |
| 2026-05-09 09:46 | 48.39926 | 5.07722 | 13236 ft | 380 kts | 102° |
| 2026-05-09 09:46 | 48.39410 | 5.11649 | 13840 ft | 384 kts | 103° |
| 2026-05-09 09:46 | 48.38872 | 5.15598 | 14381 ft | 387 kts | 103° |
| 2026-05-09 09:47 | 48.38316 | 5.19588 | 14892 ft | 391 kts | 103° |
| 2026-05-09 09:47 | 48.37751 | 5.23606 | 15425 ft | 395 kts | 103° |
| 2026-05-09 09:47 | 48.37171 | 5.27651 | 15945 ft | 398 kts | 104° |
| 2026-05-09 09:47 | 48.36587 | 5.31696 | 16488 ft | 401 kts | 104° |
| 2026-05-09 09:48 | 48.35992 | 5.35809 | 17025 ft | 404 kts | 104° |
| 2026-05-09 09:48 | 48.35391 | 5.39957 | 17566 ft | 408 kts | 104° |
| 2026-05-09 09:48 | 48.34785 | 5.44139 | 18111 ft | 411 kts | 104° |
| 2026-05-09 09:48 | 48.34172 | 5.48367 | 18594 ft | 415 kts | 104° |
| 2026-05-09 09:49 | 48.33555 | 5.52618 | 19089 ft | 418 kts | 104° |
| 2026-05-09 09:49 | 48.32933 | 5.56897 | 19591 ft | 420 kts | 104° |
| 2026-05-09 09:49 | 48.32304 | 5.61208 | 20081 ft | 424 kts | 103° |
| 2026-05-09 09:49 | 48.31669 | 5.65547 | 20561 ft | 427 kts | 103° |
| 2026-05-09 09:50 | 48.31030 | 5.69905 | 21074 ft | 430 kts | 103° |
| 2026-05-09 09:50 | 48.30382 | 5.74305 | 21554 ft | 433 kts | 103° |
| 2026-05-09 09:50 | 48.29728 | 5.78734 | 22048 ft | 436 kts | 103° |
| 2026-05-09 09:50 | 48.29067 | 5.83199 | 22533 ft | 439 kts | 103° |
| 2026-05-09 09:51 | 48.28400 | 5.87692 | 23055 ft | 441 kts | 103° |
| 2026-05-09 09:51 | 48.27727 | 5.92209 | 23517 ft | 444 kts | 104° |
| 2026-05-09 09:51 | 48.27059 | 5.96684 | 23927 ft | 447 kts | 104° |
| 2026-05-09 09:51 | 48.26375 | 6.01252 | 24356 ft | 449 kts | 103° |
| 2026-05-09 09:52 | 48.25678 | 6.05888 | 24709 ft | 453 kts | 103° |
| 2026-05-09 09:52 | 48.24988 | 6.10465 | 25110 ft | 455 kts | 103° |
| 2026-05-09 09:52 | 48.24288 | 6.15104 | 25544 ft | 457 kts | 103° |
| 2026-05-09 09:52 | 48.23584 | 6.19760 | 25961 ft | 458 kts | 103° |
| 2026-05-09 09:53 | 48.22873 | 6.24437 | 26363 ft | 461 kts | 103° |
| 2026-05-09 09:53 | 48.22160 | 6.29122 | 26792 ft | 462 kts | 103° |
| 2026-05-09 09:53 | 48.21439 | 6.33837 | 27196 ft | 464 kts | 104° |
| 2026-05-09 09:53 | 48.20711 | 6.38581 | 27594 ft | 466 kts | 104° |
| 2026-05-09 09:54 | 48.19981 | 6.43321 | 27999 ft | 468 kts | 103° |
| 2026-05-09 09:54 | 48.19242 | 6.48113 | 28234 ft | 474 kts | 103° |
| 2026-05-09 09:54 | 48.18496 | 6.52941 | 28584 ft | 476 kts | 103° |
| 2026-05-09 09:54 | 48.17747 | 6.57768 | 29018 ft | 477 kts | 103° |
| 2026-05-09 09:55 | 48.17002 | 6.62554 | 29391 ft | 478 kts | 103° |
| 2026-05-09 09:55 | 48.16242 | 6.67419 | 29737 ft | 480 kts | 103° |
| 2026-05-09 09:55 | 48.15479 | 6.72293 | 30087 ft | 482 kts | 103° |
| 2026-05-09 09:55 | 48.14715 | 6.77184 | 30354 ft | 484 kts | 103° |
| 2026-05-09 09:56 | 48.13940 | 6.82111 | 30563 ft | 487 kts | 103° |
| 2026-05-09 09:56 | 48.13156 | 6.87070 | 30725 ft | 491 kts | 103° |
| 2026-05-09 09:56 | 48.12363 | 6.92062 | 30850 ft | 496 kts | 103° |
| 2026-05-09 09:56 | 48.11561 | 6.97100 | 31101 ft | 497 kts | 103° |
| 2026-05-09 09:57 | 48.10757 | 7.02138 | 31399 ft | 497 kts | 103° |
| 2026-05-09 09:57 | 48.09949 | 7.07182 | 31717 ft | 497 kts | 103° |
| 2026-05-09 09:57 | 48.09143 | 7.12201 | 32027 ft | 496 kts | 103° |
| 2026-05-09 09:57 | 48.08335 | 7.17223 | 32325 ft | 496 kts | 103° |
| 2026-05-09 09:58 | 48.07526 | 7.22235 | 32608 ft | 496 kts | 103° |
| 2026-05-09 09:58 | 48.06712 | 7.27262 | 32853 ft | 498 kts | 103° |
| 2026-05-09 09:58 | 48.05894 | 7.32298 | 32943 ft | 502 kts | 103° |
| 2026-05-09 09:58 | 48.05068 | 7.37374 | 33198 ft | 501 kts | 103° |
| 2026-05-09 09:59 | 48.04242 | 7.42431 | 33500 ft | 501 kts | 103° |
| 2026-05-09 09:59 | 48.03425 | 7.47420 | 33773 ft | 500 kts | 103° |
| 2026-05-09 09:59 | 48.02597 | 7.52460 | 33992 ft | 500 kts | 104° |
| 2026-05-09 09:59 | 48.01765 | 7.57510 | 34211 ft | 500 kts | 104° |
| 2026-05-09 10:00 | 48.00928 | 7.62568 | 34404 ft | 501 kts | 104° |
| 2026-05-09 10:00 | 48.00090 | 7.67613 | 34577 ft | 502 kts | 104° |
| 2026-05-09 10:00 | 47.99244 | 7.72691 | 34601 ft | 506 kts | 104° |
| 2026-05-09 10:00 | 47.98393 | 7.77798 | 34769 ft | 506 kts | 104° |
| 2026-05-09 10:01 | 47.97542 | 7.82887 | 34998 ft | 505 kts | 104° |
| 2026-05-09 10:01 | 47.95824 | 7.93122 | 35090 ft | 512 kts | 104° |
| 2026-05-09 10:02 | 47.94080 | 8.03442 | 35088 ft | 512 kts | 104° |
| 2026-05-09 10:02 | 47.92345 | 8.13651 | 35094 ft | 510 kts | 104° |
| 2026-05-09 10:03 | 47.90590 | 8.23908 | 35097 ft | 510 kts | 105° |
| 2026-05-09 10:03 | 47.88823 | 8.34171 | 35097 ft | 510 kts | 105° |
| 2026-05-09 10:04 | 47.87053 | 8.44401 | 35096 ft | 510 kts | 105° |
| 2026-05-09 10:04 | 47.85268 | 8.54674 | 35100 ft | 513 kts | 105° |
| 2026-05-09 10:05 | 47.83481 | 8.64887 | 35101 ft | 514 kts | 105° |
| 2026-05-09 10:05 | 47.81667 | 8.75169 | 35103 ft | 514 kts | 105° |
| 2026-05-09 10:06 | 47.79842 | 8.85460 | 35101 ft | 514 kts | 105° |
| 2026-05-09 10:06 | 47.78009 | 8.95748 | 35101 ft | 517 kts | 105° |
| 2026-05-09 10:07 | 47.76156 | 9.06092 | 35104 ft | 518 kts | 105° |
| 2026-05-09 10:07 | 47.74291 | 9.16444 | 35105 ft | 518 kts | 105° |
| 2026-05-09 10:08 | 47.72420 | 9.26771 | 35105 ft | 518 kts | 105° |
| 2026-05-09 10:08 | 47.70541 | 9.37080 | 35104 ft | 521 kts | 105° |
| 2026-05-09 10:09 | 47.68642 | 9.47440 | 35104 ft | 521 kts | 105° |
| 2026-05-09 10:09 | 47.66728 | 9.57828 | 35102 ft | 522 kts | 105° |
| 2026-05-09 10:10 | 47.64804 | 9.68208 | 35106 ft | 522 kts | 105° |
| 2026-05-09 10:10 | 47.62869 | 9.78611 | 35100 ft | 524 kts | 106° |
| 2026-05-09 10:11 | 47.60914 | 9.89047 | 35106 ft | 525 kts | 106° |
| 2026-05-09 10:11 | 47.58948 | 9.99459 | 35114 ft | 525 kts | 106° |
| 2026-05-09 10:12 | 47.56972 | 10.09876 | 35121 ft | 525 kts | 106° |
| 2026-05-09 10:12 | 47.54987 | 10.20294 | 35111 ft | 526 kts | 106° |
| 2026-05-09 10:13 | 47.52991 | 10.30707 | 35113 ft | 525 kts | 107° |
| 2026-05-09 10:13 | 47.50989 | 10.41096 | 35117 ft | 525 kts | 107° |
| 2026-05-09 10:14 | 47.48989 | 10.51419 | 35110 ft | 526 kts | 107° |
| 2026-05-09 10:14 | 47.46964 | 10.61822 | 35114 ft | 526 kts | 107° |
| 2026-05-09 10:15 | 47.44929 | 10.72216 | 35114 ft | 527 kts | 107° |
| 2026-05-09 10:15 | 47.42884 | 10.82604 | 35109 ft | 526 kts | 107° |
| 2026-05-09 10:16 | 47.40830 | 10.92978 | 35110 ft | 527 kts | 107° |
| 2026-05-09 10:16 | 47.38760 | 11.03377 | 35102 ft | 528 kts | 107° |
| 2026-05-09 10:17 | 47.36676 | 11.13793 | 35100 ft | 528 kts | 107° |
| 2026-05-09 10:17 | 47.34582 | 11.24202 | 35097 ft | 529 kts | 107° |
| 2026-05-09 10:18 | 47.32840 | 11.32825 | 35100 ft | 528 kts | 108° |
| 2026-05-09 10:18 | 47.30383 | 11.44914 | 35102 ft | 529 kts | 108° |
| 2026-05-09 10:19 | 47.28624 | 11.53528 | 35104 ft | 529 kts | 108° |
| 2026-05-09 10:19 | 47.26494 | 11.63908 | 35106 ft | 529 kts | 108° |
| 2026-05-09 10:20 | 47.24358 | 11.74272 | 35105 ft | 529 kts | 108° |
| 2026-05-09 10:20 | 47.22212 | 11.84617 | 35105 ft | 528 kts | 108° |
| 2026-05-09 10:21 | 47.19997 | 11.94906 | 35102 ft | 527 kts | 111° |
| 2026-05-09 10:21 | 47.17324 | 12.04945 | 35116 ft | 527 kts | 114° |
| 2026-05-09 10:22 | 47.14574 | 12.14853 | 35106 ft | 526 kts | 113° |
| 2026-05-09 10:22 | 47.11871 | 12.24824 | 35111 ft | 525 kts | 113° |
| 2026-05-09 10:23 | 47.09206 | 12.34797 | 35111 ft | 524 kts | 113° |
| 2026-05-09 10:23 | 47.06542 | 12.44765 | 35105 ft | 524 kts | 113° |
| 2026-05-09 10:24 | 47.03869 | 12.54719 | 35112 ft | 524 kts | 113° |
| 2026-05-09 10:24 | 47.01185 | 12.64663 | 35109 ft | 524 kts | 113° |
| 2026-05-09 10:25 | 46.98489 | 12.74599 | 35103 ft | 524 kts | 113° |
| 2026-05-09 10:25 | 46.95788 | 12.84521 | 35103 ft | 524 kts | 113° |
| 2026-05-09 10:26 | 46.93100 | 12.94353 | 35105 ft | 523 kts | 113° |
| 2026-05-09 10:26 | 46.90380 | 13.04248 | 35107 ft | 524 kts | 114° |
| 2026-05-09 10:27 | 46.87658 | 13.14125 | 35103 ft | 524 kts | 114° |
| 2026-05-09 10:27 | 46.84924 | 13.23998 | 35102 ft | 524 kts | 114° |
| 2026-05-09 10:28 | 46.82182 | 13.33857 | 35095 ft | 524 kts | 114° |
| 2026-05-09 10:28 | 46.79433 | 13.43705 | 35094 ft | 524 kts | 114° |
| 2026-05-09 10:29 | 46.76671 | 13.53556 | 35093 ft | 524 kts | 114° |
| 2026-05-09 10:29 | 46.73904 | 13.63386 | 35101 ft | 524 kts | 114° |
| 2026-05-09 10:30 | 46.71129 | 13.73205 | 35095 ft | 524 kts | 114° |
| 2026-05-09 10:30 | 46.68348 | 13.83007 | 35087 ft | 523 kts | 114° |
| 2026-05-09 10:31 | 46.65557 | 13.92807 | 35090 ft | 524 kts | 114° |
| 2026-05-09 10:31 | 46.62758 | 14.02590 | 35091 ft | 523 kts | 114° |
| 2026-05-09 10:32 | 46.59972 | 14.12290 | 35080 ft | 523 kts | 115° |
| 2026-05-09 10:32 | 46.57146 | 14.22032 | 35076 ft | 523 kts | 115° |
| 2026-05-09 10:33 | 46.54244 | 14.31733 | 35077 ft | 523 kts | 116° |
| 2026-05-09 10:33 | 46.51328 | 14.41418 | 35083 ft | 523 kts | 116° |
| 2026-05-09 10:34 | 46.48412 | 14.51105 | 35077 ft | 523 kts | 116° |
| 2026-05-09 10:34 | 46.44039 | 14.65599 | 35076 ft | 523 kts | 116° |
| 2026-05-09 10:35 | 46.41153 | 14.75294 | 35086 ft | 524 kts | 115° |
| 2026-05-09 10:35 | 46.38281 | 14.84983 | 35082 ft | 523 kts | 115° |
| 2026-05-09 10:36 | 46.35394 | 14.94667 | 35088 ft | 524 kts | 116° |
| 2026-05-09 10:36 | 46.32509 | 15.04265 | 35083 ft | 524 kts | 116° |
| 2026-05-09 10:37 | 46.29593 | 15.13928 | 35084 ft | 524 kts | 116° |
| 2026-05-09 10:37 | 46.26668 | 15.23580 | 35087 ft | 523 kts | 116° |
| 2026-05-09 10:38 | 46.23740 | 15.33212 | 35086 ft | 523 kts | 116° |
| 2026-05-09 10:38 | 46.20805 | 15.42827 | 35088 ft | 523 kts | 116° |
| 2026-05-09 10:39 | 46.17860 | 15.52442 | 35090 ft | 523 kts | 116° |
| 2026-05-09 10:39 | 46.14911 | 15.62033 | 35089 ft | 523 kts | 116° |
| 2026-05-09 10:40 | 46.11973 | 15.71552 | 35093 ft | 523 kts | 116° |
| 2026-05-09 10:40 | 46.09009 | 15.81121 | 35092 ft | 523 kts | 116° |
| 2026-05-09 10:41 | 46.06036 | 15.90677 | 35073 ft | 522 kts | 116° |
| 2026-05-09 10:41 | 46.03054 | 16.00231 | 35089 ft | 524 kts | 116° |
| 2026-05-09 10:42 | 46.00068 | 16.09758 | 35094 ft | 523 kts | 116° |
| 2026-05-09 10:42 | 45.97072 | 16.19286 | 35093 ft | 522 kts | 116° |
| 2026-05-09 10:43 | 45.94075 | 16.28781 | 35112 ft | 522 kts | 117° |
| 2026-05-09 10:43 | 45.91065 | 16.38280 | 35096 ft | 522 kts | 117° |
| 2026-05-09 10:44 | 45.88071 | 16.47696 | 35099 ft | 521 kts | 117° |
| 2026-05-09 10:44 | 45.85054 | 16.57149 | 35100 ft | 521 kts | 117° |
| 2026-05-09 10:46 | 45.77487 | 16.80703 | 35090 ft | 519 kts | 117° |
| 2026-05-09 10:46 | 45.74455 | 16.90083 | 35089 ft | 519 kts | 117° |
| 2026-05-09 10:47 | 45.71416 | 16.99449 | 35092 ft | 519 kts | 117° |
| 2026-05-09 10:47 | 45.68368 | 17.08812 | 35089 ft | 519 kts | 117° |
| 2026-05-09 10:48 | 45.65316 | 17.18150 | 35087 ft | 518 kts | 117° |
| 2026-05-09 10:48 | 45.62254 | 17.27487 | 35092 ft | 518 kts | 117° |
| 2026-05-09 10:49 | 45.59190 | 17.36797 | 35093 ft | 518 kts | 117° |
| 2026-05-09 10:49 | 45.56115 | 17.46108 | 35091 ft | 518 kts | 117° |
| 2026-05-09 10:50 | 45.53060 | 17.55324 | 35098 ft | 517 kts | 117° |
| 2026-05-09 10:50 | 45.49978 | 17.64584 | 35096 ft | 517 kts | 117° |
| 2026-05-09 10:51 | 45.46888 | 17.73841 | 35090 ft | 517 kts | 118° |
| 2026-05-09 10:51 | 45.43791 | 17.83090 | 35090 ft | 517 kts | 118° |
| 2026-05-09 10:52 | 45.40683 | 17.92335 | 35088 ft | 517 kts | 118° |
| 2026-05-09 10:52 | 45.37571 | 18.01559 | 35084 ft | 517 kts | 118° |
| 2026-05-09 10:53 | 45.34453 | 18.10773 | 35082 ft | 517 kts | 118° |
| 2026-05-09 10:53 | 45.31322 | 18.19987 | 35090 ft | 518 kts | 118° |
| 2026-05-09 10:54 | 45.28180 | 18.29203 | 35084 ft | 518 kts | 118° |
| 2026-05-09 10:54 | 45.25048 | 18.38358 | 35087 ft | 518 kts | 118° |
| 2026-05-09 10:55 | 45.21891 | 18.47555 | 35090 ft | 518 kts | 118° |
| 2026-05-09 10:55 | 45.18729 | 18.56738 | 35084 ft | 518 kts | 118° |
| 2026-05-09 10:56 | 45.15560 | 18.65908 | 35081 ft | 518 kts | 118° |
| 2026-05-09 10:56 | 45.12378 | 18.75082 | 35080 ft | 518 kts | 118° |
| 2026-05-09 10:57 | 45.09208 | 18.84192 | 35082 ft | 519 kts | 118° |
| 2026-05-09 10:57 | 45.06008 | 18.93356 | 35079 ft | 520 kts | 118° |
| 2026-05-09 10:58 | 45.02798 | 19.02517 | 35078 ft | 520 kts | 118° |
| 2026-05-09 10:58 | 44.99586 | 19.11655 | 35078 ft | 519 kts | 118° |
| 2026-05-09 10:59 | 44.96360 | 19.20800 | 35082 ft | 519 kts | 118° |
| 2026-05-09 10:59 | 44.93130 | 19.29928 | 35079 ft | 519 kts | 118° |
| 2026-05-09 11:00 | 44.89895 | 19.39038 | 35081 ft | 519 kts | 118° |
| 2026-05-09 11:00 | 44.86652 | 19.48136 | 35071 ft | 519 kts | 118° |
| 2026-05-09 11:01 | 44.83406 | 19.57217 | 35076 ft | 519 kts | 118° |
| 2026-05-09 11:01 | 44.80149 | 19.66296 | 35090 ft | 519 kts | 118° |
| 2026-05-09 11:02 | 44.76904 | 19.75311 | 35086 ft | 519 kts | 118° |
| 2026-05-09 11:02 | 44.73635 | 19.84366 | 35083 ft | 519 kts | 118° |
| 2026-05-09 11:03 | 44.70355 | 19.93419 | 35081 ft | 519 kts | 118° |
| 2026-05-09 11:03 | 44.67072 | 20.02451 | 35063 ft | 519 kts | 118° |
| 2026-05-09 11:04 | 44.63774 | 20.11490 | 35077 ft | 520 kts | 118° |
| 2026-05-09 11:04 | 44.61023 | 20.19012 | 35078 ft | 520 kts | 118° |
| 2026-05-09 11:05 | 44.57705 | 20.28055 | 35076 ft | 521 kts | 118° |
| 2026-05-09 11:05 | 44.54385 | 20.37073 | 35074 ft | 521 kts | 118° |
| 2026-05-09 11:06 | 44.51051 | 20.46100 | 35072 ft | 522 kts | 118° |
| 2026-05-09 11:06 | 44.47709 | 20.55122 | 35071 ft | 522 kts | 118° |
| 2026-05-09 11:07 | 44.44381 | 20.64075 | 35064 ft | 521 kts | 119° |
| 2026-05-09 11:07 | 44.41025 | 20.73071 | 35067 ft | 522 kts | 118° |
| 2026-05-09 11:08 | 44.37657 | 20.82071 | 35063 ft | 522 kts | 118° |
| 2026-05-09 11:08 | 44.34279 | 20.91069 | 35064 ft | 522 kts | 118° |
| 2026-05-09 11:09 | 44.30898 | 21.00047 | 35064 ft | 522 kts | 118° |
| 2026-05-09 11:09 | 44.27502 | 21.09033 | 35061 ft | 524 kts | 118° |
| 2026-05-09 11:10 | 44.24117 | 21.17964 | 35064 ft | 524 kts | 118° |
| 2026-05-09 11:10 | 44.20703 | 21.26943 | 35067 ft | 524 kts | 118° |
| 2026-05-09 11:11 | 44.17264 | 21.35906 | 35065 ft | 524 kts | 120° |
| 2026-05-09 11:11 | 44.13435 | 21.44538 | 35064 ft | 524 kts | 124° |
| 2026-05-09 11:12 | 44.09443 | 21.53044 | 35050 ft | 524 kts | 124° |
| 2026-05-09 11:12 | 44.05499 | 21.61576 | 35063 ft | 524 kts | 123° |
| 2026-05-09 11:13 | 44.01593 | 21.70140 | 35058 ft | 525 kts | 123° |
| 2026-05-09 11:13 | 43.97684 | 21.78724 | 35058 ft | 525 kts | 123° |
| 2026-05-09 11:14 | 43.93775 | 21.87278 | 35059 ft | 524 kts | 123° |
| 2026-05-09 11:14 | 43.89854 | 21.95828 | 35056 ft | 525 kts | 124° |
| 2026-05-09 11:15 | 43.85952 | 22.04311 | 35051 ft | 525 kts | 124° |
| 2026-05-09 11:15 | 43.82007 | 22.12859 | 35047 ft | 525 kts | 124° |
| 2026-05-09 11:16 | 43.78085 | 22.21337 | 35051 ft | 525 kts | 124° |
| 2026-05-09 11:16 | 43.74138 | 22.29843 | 35042 ft | 525 kts | 124° |
| 2026-05-09 11:17 | 43.70303 | 22.38447 | 35049 ft | 525 kts | 117° |
| 2026-05-09 11:17 | 43.68069 | 22.48017 | 35053 ft | 525 kts | 99° |
| 2026-05-09 11:18 | 43.67050 | 22.58040 | 35047 ft | 527 kts | 96° |
| 2026-05-09 11:18 | 43.66206 | 22.68096 | 35051 ft | 527 kts | 96° |
| 2026-05-09 11:19 | 43.65352 | 22.78084 | 35047 ft | 527 kts | 96° |
| 2026-05-09 11:19 | 43.64451 | 22.88141 | 35044 ft | 527 kts | 97° |
| 2026-05-09 11:20 | 43.63529 | 22.98165 | 35048 ft | 526 kts | 97° |
| 2026-05-09 11:20 | 43.62597 | 23.08198 | 35039 ft | 526 kts | 97° |
| 2026-05-09 11:21 | 43.61658 | 23.18220 | 35041 ft | 526 kts | 97° |
| 2026-05-09 11:21 | 43.60713 | 23.28210 | 35040 ft | 525 kts | 97° |
| 2026-05-09 11:22 | 43.59760 | 23.38198 | 35034 ft | 525 kts | 97° |
| 2026-05-09 11:22 | 43.58798 | 23.48186 | 35034 ft | 525 kts | 97° |
| 2026-05-09 11:23 | 43.57835 | 23.58099 | 35028 ft | 525 kts | 97° |
| 2026-05-09 11:23 | 43.56858 | 23.68048 | 35025 ft | 524 kts | 97° |
| 2026-05-09 11:24 | 43.55873 | 23.77998 | 35012 ft | 523 kts | 98° |
| 2026-05-09 11:24 | 43.54879 | 23.87946 | 35010 ft | 523 kts | 98° |
| 2026-05-09 11:25 | 43.53877 | 23.97881 | 35006 ft | 523 kts | 98° |
| 2026-05-09 11:25 | 43.52868 | 24.07801 | 35001 ft | 522 kts | 98° |
| 2026-05-09 11:26 | 43.51851 | 24.17712 | 35003 ft | 522 kts | 98° |
| 2026-05-09 11:26 | 43.50826 | 24.27621 | 34995 ft | 522 kts | 98° |
| 2026-05-09 11:27 | 43.49801 | 24.37435 | 34996 ft | 521 kts | 98° |
| 2026-05-09 11:27 | 43.48763 | 24.47296 | 34990 ft | 520 kts | 98° |
| 2026-05-09 11:28 | 43.47715 | 24.57163 | 34989 ft | 520 kts | 98° |
| 2026-05-09 11:28 | 43.46658 | 24.67028 | 34985 ft | 520 kts | 98° |
| 2026-05-09 11:29 | 43.45595 | 24.76878 | 34990 ft | 519 kts | 98° |
| 2026-05-09 11:29 | 43.44524 | 24.86712 | 34981 ft | 519 kts | 98° |
| 2026-05-09 11:30 | 43.43453 | 24.96469 | 34985 ft | 519 kts | 98° |
| 2026-05-09 11:30 | 43.42367 | 25.06283 | 34985 ft | 519 kts | 98° |
| 2026-05-09 11:31 | 43.41273 | 25.16089 | 34983 ft | 519 kts | 98° |
| 2026-05-09 11:31 | 43.40170 | 25.25891 | 34984 ft | 519 kts | 98° |
| 2026-05-09 11:32 | 43.39060 | 25.35684 | 34981 ft | 519 kts | 98° |
| 2026-05-09 11:32 | 43.37940 | 25.45489 | 34985 ft | 518 kts | 98° |
| 2026-05-09 11:33 | 43.36815 | 25.55263 | 34987 ft | 518 kts | 98° |
| 2026-05-09 11:33 | 43.35118 | 25.69852 | 34991 ft | 518 kts | 99° |
| 2026-05-09 11:34 | 43.33972 | 25.79624 | 34985 ft | 517 kts | 99° |
| 2026-05-09 11:34 | 43.32817 | 25.89384 | 34988 ft | 518 kts | 99° |
| 2026-05-09 11:35 | 43.31654 | 25.99148 | 34989 ft | 518 kts | 99° |
| 2026-05-09 11:35 | 43.30484 | 26.08886 | 34983 ft | 515 kts | 99° |
| 2026-05-09 11:36 | 43.29317 | 26.18543 | 34976 ft | 511 kts | 99° |
| 2026-05-09 11:36 | 43.28144 | 26.28168 | 34974 ft | 511 kts | 99° |
| 2026-05-09 11:37 | 43.26963 | 26.37791 | 34973 ft | 511 kts | 99° |
| 2026-05-09 11:37 | 43.25775 | 26.47404 | 34972 ft | 511 kts | 100° |
| 2026-05-09 11:38 | 43.24589 | 26.56926 | 34968 ft | 508 kts | 100° |
| 2026-05-09 11:38 | 43.23393 | 26.66468 | 34968 ft | 508 kts | 100° |
| 2026-05-09 11:39 | 43.22187 | 26.76014 | 34965 ft | 508 kts | 100° |
| 2026-05-09 11:40 | 43.20364 | 26.90327 | 34966 ft | 508 kts | 100° |
| 2026-05-09 11:40 | 43.19178 | 26.99873 | 34963 ft | 508 kts | 99° |
| 2026-05-09 11:41 | 43.18146 | 27.09430 | 34966 ft | 508 kts | 98° |
| 2026-05-09 11:41 | 43.17125 | 27.19003 | 34967 ft | 508 kts | 98° |
| 2026-05-09 11:42 | 43.16072 | 27.28556 | 34966 ft | 507 kts | 99° |
| 2026-05-09 11:42 | 43.15007 | 27.38029 | 34969 ft | 507 kts | 99° |
| 2026-05-09 11:43 | 43.13921 | 27.47585 | 34976 ft | 507 kts | 99° |
| 2026-05-09 11:43 | 43.12830 | 27.57110 | 34984 ft | 505 kts | 99° |
| 2026-05-09 11:44 | 43.11734 | 27.66620 | 34989 ft | 505 kts | 99° |
| 2026-05-09 11:44 | 43.10632 | 27.76115 | 34992 ft | 505 kts | 99° |
| 2026-05-09 11:45 | 43.09523 | 27.85590 | 34995 ft | 505 kts | 99° |
| 2026-05-09 11:45 | 43.08405 | 27.95085 | 34997 ft | 506 kts | 99° |
| 2026-05-09 11:46 | 43.07283 | 28.04534 | 35007 ft | 506 kts | 99° |
| 2026-05-09 11:46 | 43.06148 | 28.14024 | 35034 ft | 506 kts | 99° |
| 2026-05-09 11:47 | 43.05003 | 28.23529 | 35034 ft | 506 kts | 99° |
| 2026-05-09 11:47 | 43.03849 | 28.33039 | 35034 ft | 505 kts | 100° |
| 2026-05-09 11:48 | 43.02692 | 28.42514 | 35038 ft | 505 kts | 100° |
| 2026-05-09 11:48 | 43.01526 | 28.51983 | 35037 ft | 505 kts | 100° |
| 2026-05-09 11:49 | 43.00353 | 28.61452 | 35034 ft | 505 kts | 101° |
| 2026-05-09 11:49 | 42.99180 | 28.70853 | 35039 ft | 505 kts | 101° |
| 2026-05-09 11:50 | 42.97992 | 28.80301 | 35040 ft | 505 kts | 101° |
| 2026-05-09 11:50 | 42.96795 | 28.89762 | 35042 ft | 505 kts | 101° |
| 2026-05-09 11:51 | 42.95795 | 28.97613 | 35042 ft | 505 kts | 101° |
| 2026-05-09 11:51 | 42.94388 | 29.08589 | 35047 ft | 505 kts | 101° |
| 2026-05-09 11:52 | 42.93374 | 29.16444 | 35050 ft | 505 kts | 101° |
| 2026-05-09 11:52 | 42.92148 | 29.25880 | 35056 ft | 505 kts | 101° |
| 2026-05-09 11:53 | 42.90914 | 29.35316 | 35059 ft | 505 kts | 101° |
| 2026-05-09 11:53 | 42.89672 | 29.44757 | 35061 ft | 505 kts | 101° |
| 2026-05-09 11:54 | 42.88422 | 29.54188 | 35061 ft | 505 kts | 101° |
| 2026-05-09 11:54 | 42.87163 | 29.63622 | 35062 ft | 505 kts | 101° |
| 2026-05-09 11:55 | 42.85899 | 29.73038 | 35060 ft | 505 kts | 101° |
| 2026-05-09 11:56 | 42.82070 | 30.01195 | 35067 ft | 505 kts | 101° |
| 2026-05-09 11:57 | 42.80780 | 30.10559 | 35069 ft | 502 kts | 102° |
| 2026-05-09 11:57 | 42.79489 | 30.19873 | 35073 ft | 500 kts | 102° |
| 2026-05-09 11:58 | 42.78201 | 30.29118 | 35066 ft | 493 kts | 102° |
| 2026-05-09 11:58 | 42.76919 | 30.38256 | 35059 ft | 491 kts | 102° |
| 2026-05-09 11:59 | 42.75634 | 30.47349 | 35067 ft | 489 kts | 102° |
| 2026-05-09 11:59 | 42.74343 | 30.56434 | 35064 ft | 488 kts | 102° |
| 2026-05-09 12:00 | 42.72954 | 30.65411 | 35064 ft | 488 kts | 105° |
| 2026-05-09 12:00 | 42.71159 | 30.74322 | 35063 ft | 488 kts | 107° |
| 2026-05-09 12:01 | 42.69321 | 30.83189 | 35065 ft | 488 kts | 107° |
| 2026-05-09 12:01 | 42.67532 | 30.92085 | 35061 ft | 488 kts | 107° |
| 2026-05-09 12:02 | 42.65771 | 31.00984 | 35059 ft | 488 kts | 107° |
| 2026-05-09 12:02 | 42.64008 | 31.09885 | 35058 ft | 488 kts | 107° |
| 2026-05-09 12:03 | 42.62235 | 31.18790 | 35054 ft | 489 kts | 107° |
| 2026-05-09 12:03 | 42.60449 | 31.27708 | 35057 ft | 489 kts | 107° |
| 2026-05-09 12:04 | 42.58656 | 31.36618 | 35055 ft | 489 kts | 107° |
| 2026-05-09 12:04 | 42.56871 | 31.45450 | 35055 ft | 488 kts | 107° |
| 2026-05-09 12:05 | 42.55067 | 31.54334 | 35053 ft | 488 kts | 107° |
| 2026-05-09 12:05 | 42.53261 | 31.63195 | 35050 ft | 488 kts | 107° |
| 2026-05-09 12:06 | 42.51445 | 31.72062 | 35050 ft | 488 kts | 107° |
| 2026-05-09 12:06 | 42.49624 | 31.80918 | 35051 ft | 487 kts | 107° |
| 2026-05-09 12:07 | 42.47798 | 31.89759 | 35053 ft | 487 kts | 107° |
| 2026-05-09 12:07 | 42.45963 | 31.98603 | 35053 ft | 487 kts | 107° |
| 2026-05-09 12:08 | 42.44121 | 32.07446 | 35051 ft | 487 kts | 107° |
| 2026-05-09 12:08 | 42.42280 | 32.16248 | 35053 ft | 486 kts | 107° |
| 2026-05-09 12:09 | 42.40443 | 32.24992 | 35051 ft | 486 kts | 107° |
| 2026-05-09 12:09 | 42.38588 | 32.33782 | 35050 ft | 486 kts | 107° |
| 2026-05-09 12:10 | 42.34857 | 32.51355 | 35051 ft | 486 kts | 108° |
| 2026-05-09 12:11 | 42.33206 | 32.60205 | 35050 ft | 487 kts | 101° |
| 2026-05-09 12:11 | 42.32105 | 32.69237 | 35045 ft | 488 kts | 100° |
| 2026-05-09 12:12 | 42.31090 | 32.78316 | 35045 ft | 488 kts | 100° |
| 2026-05-09 12:12 | 42.30082 | 32.87317 | 35045 ft | 488 kts | 100° |
| 2026-05-09 12:13 | 42.29049 | 32.96372 | 35046 ft | 488 kts | 100° |
| 2026-05-09 12:13 | 42.28002 | 33.05432 | 35048 ft | 488 kts | 100° |
| 2026-05-09 12:14 | 42.26949 | 33.14464 | 35048 ft | 488 kts | 100° |
| 2026-05-09 12:14 | 42.25887 | 33.23512 | 35048 ft | 487 kts | 101° |
| 2026-05-09 12:15 | 42.24819 | 33.32559 | 35049 ft | 487 kts | 100° |
| 2026-05-09 12:15 | 42.23744 | 33.41590 | 35053 ft | 487 kts | 101° |
| 2026-05-09 12:16 | 42.22668 | 33.50569 | 35056 ft | 488 kts | 100° |
| 2026-05-09 12:16 | 42.21578 | 33.59611 | 35056 ft | 488 kts | 100° |
| 2026-05-09 12:17 | 42.20483 | 33.68634 | 35061 ft | 488 kts | 101° |
| 2026-05-09 12:17 | 42.19379 | 33.77666 | 35061 ft | 488 kts | 101° |
| 2026-05-09 12:18 | 42.18266 | 33.86695 | 35065 ft | 488 kts | 101° |
| 2026-05-09 12:18 | 42.17148 | 33.95727 | 35069 ft | 488 kts | 101° |
| 2026-05-09 12:19 | 42.16024 | 34.04754 | 35067 ft | 488 kts | 101° |
| 2026-05-09 12:19 | 42.14892 | 34.13789 | 35066 ft | 488 kts | 101° |
| 2026-05-09 12:20 | 42.13752 | 34.22815 | 35070 ft | 488 kts | 101° |
| 2026-05-09 12:20 | 42.12611 | 34.31788 | 35070 ft | 489 kts | 101° |
| 2026-05-09 12:21 | 42.11456 | 34.40815 | 35072 ft | 489 kts | 101° |
| 2026-05-09 12:21 | 42.10279 | 34.49824 | 35065 ft | 489 kts | 101° |
| 2026-05-09 12:22 | 42.09019 | 34.58850 | 35072 ft | 490 kts | 102° |
| 2026-05-09 12:22 | 42.07749 | 34.67853 | 35072 ft | 490 kts | 102° |
| 2026-05-09 12:23 | 42.06491 | 34.76809 | 35099 ft | 490 kts | 102° |
| 2026-05-09 12:23 | 42.05224 | 34.85823 | 35108 ft | 490 kts | 102° |
| 2026-05-09 12:24 | 42.03994 | 34.94855 | 35129 ft | 491 kts | 101° |
| 2026-05-09 12:24 | 42.02792 | 35.03909 | 35125 ft | 491 kts | 101° |
| 2026-05-09 12:25 | 42.02021 | 35.13032 | 35130 ft | 492 kts | 95° |
| 2026-05-09 12:25 | 42.01511 | 35.22225 | 35123 ft | 492 kts | 95° |
| 2026-05-09 12:26 | 42.01035 | 35.31365 | 35112 ft | 495 kts | 95° |
| 2026-05-09 12:26 | 42.00545 | 35.40602 | 35101 ft | 495 kts | 95° |
| 2026-05-09 12:27 | 42.00039 | 35.49831 | 35087 ft | 495 kts | 95° |
| 2026-05-09 12:27 | 41.99522 | 35.59072 | 35080 ft | 495 kts | 95° |
| 2026-05-09 12:28 | 41.98997 | 35.68310 | 35081 ft | 497 kts | 95° |
| 2026-05-09 12:28 | 41.98462 | 35.77584 | 35081 ft | 498 kts | 95° |
| 2026-05-09 12:29 | 41.97920 | 35.86869 | 35083 ft | 498 kts | 95° |
| 2026-05-09 12:29 | 41.97371 | 35.96146 | 35082 ft | 498 kts | 95° |
| 2026-05-09 12:30 | 41.96811 | 36.05459 | 35083 ft | 501 kts | 95° |
| 2026-05-09 12:30 | 41.95955 | 36.19490 | 35086 ft | 502 kts | 95° |
| 2026-05-09 12:31 | 41.95084 | 36.33474 | 35083 ft | 502 kts | 95° |
| 2026-05-09 12:32 | 41.94490 | 36.42847 | 35083 ft | 502 kts | 96° |
| 2026-05-09 12:32 | 41.93894 | 36.52143 | 35083 ft | 502 kts | 96° |
| 2026-05-09 12:33 | 41.93287 | 36.61482 | 35086 ft | 502 kts | 96° |
| 2026-05-09 12:33 | 41.92672 | 36.70829 | 35086 ft | 503 kts | 95° |
| 2026-05-09 12:34 | 41.92048 | 36.80197 | 35089 ft | 503 kts | 95° |
| 2026-05-09 12:34 | 41.91416 | 36.89564 | 35088 ft | 504 kts | 95° |
| 2026-05-09 12:35 | 41.90782 | 36.98849 | 35090 ft | 504 kts | 95° |
| 2026-05-09 12:35 | 41.89230 | 37.07976 | 35094 ft | 502 kts | 111° |
| 2026-05-09 12:36 | 41.86644 | 37.16692 | 35091 ft | 503 kts | 114° |
| 2026-05-09 12:36 | 41.83892 | 37.25338 | 35091 ft | 504 kts | 114° |
| 2026-05-09 12:37 | 41.81128 | 37.33971 | 35091 ft | 504 kts | 114° |
| 2026-05-09 12:37 | 41.78841 | 37.41152 | 35091 ft | 504 kts | 114° |
| 2026-05-09 12:38 | 41.75642 | 37.51212 | 35096 ft | 505 kts | 114° |
| 2026-05-09 12:38 | 41.72885 | 37.59861 | 35091 ft | 505 kts | 114° |
| 2026-05-09 12:39 | 41.70589 | 37.67039 | 35091 ft | 505 kts | 114° |
| 2026-05-09 12:39 | 41.67822 | 37.75683 | 35091 ft | 506 kts | 114° |
| 2026-05-09 12:40 | 41.65035 | 37.84339 | 35096 ft | 507 kts | 114° |
| 2026-05-09 12:40 | 41.62238 | 37.92999 | 35096 ft | 507 kts | 114° |